createdAt,value
2022-11-04T00:00:41.131Z,85721.60
2022-11-04T00:03:10.802Z,85710.20
2022-11-04T00:05:40.144Z,85704.40
2022-11-04T00:08:25.463Z,85702.60
2022-11-04T00:11:18.004Z,85713.20
2022-11-04T00:13:48.916Z,85703.40
2022-11-04T00:16:36.746Z,85701.00
2022-11-04T00:19:06.268Z,85698.00
2022-11-04T00:21:53.898Z,85699.00
2022-11-04T00:24:41.527Z,85698.00
2022-11-04T00:27:35.487Z,85696.00
2022-11-04T00:30:07.430Z,85691.20
2022-11-04T00:32:56.005Z,85696.40
2022-11-04T00:35:25.455Z,85695.20
2022-11-04T00:37:54.731Z,85697.20
2022-11-04T00:40:23.854Z,85692.00
2022-11-04T00:42:53.106Z,85686.60
2022-11-04T00:45:22.108Z,85684.60
2022-11-04T00:47:51.245Z,85678.40
2022-11-04T00:50:20.571Z,85677.00
2022-11-04T00:52:49.888Z,85678.80
2022-11-04T00:55:19.247Z,85671.80
2022-11-04T00:57:48.383Z,85673.60
2022-11-04T01:00:18.088Z,85669.60
2022-11-04T01:02:47.654Z,85667.80
2022-11-04T01:05:17.179Z,85658.60
2022-11-04T01:07:46.590Z,85658.00
2022-11-04T01:10:15.998Z,85657.00
2022-11-04T01:12:45.485Z,85657.00
2022-11-04T01:15:14.887Z,85660.20
2022-11-04T01:17:44.497Z,85656.60
2022-11-04T01:20:15.025Z,85648.40
2022-11-04T01:22:44.431Z,85650.80
2022-11-04T01:25:13.854Z,85646.20
2022-11-04T01:27:43.026Z,85644.80
2022-11-04T01:30:14.063Z,85651.20
2022-11-04T01:32:47.056Z,85654.20
2022-11-04T01:35:16.431Z,85658.60
2022-11-04T01:37:45.784Z,85654.80
2022-11-04T01:40:15.150Z,85656.40
2022-11-04T01:42:44.430Z,85652.80
2022-11-04T01:45:20.409Z,85640.80
2022-11-04T01:48:08.813Z,85641.00
2022-11-04T01:50:39.426Z,85640.20
2022-11-04T01:53:26.195Z,85638.80
2022-11-04T01:56:01.822Z,85639.00
2022-11-04T01:58:36.501Z,85640.60
2022-11-04T02:01:05.717Z,85651.00
2022-11-04T02:03:39.878Z,85650.40
2022-11-04T02:06:11.046Z,85652.60
2022-11-04T02:08:42.577Z,85653.00
2022-11-04T02:11:12.545Z,85653.00
2022-11-04T02:13:42.466Z,85656.60
2022-11-04T02:16:41.755Z,85647.60
2022-11-04T02:19:35.396Z,85650.40
2022-11-04T02:22:31.782Z,85652.40
2022-11-04T02:25:29.133Z,85650.00
2022-11-04T02:28:12.667Z,85649.00
2022-11-04T02:31:19.025Z,85652.80
2022-11-04T02:34:18.416Z,85656.40
2022-11-04T02:37:10.602Z,85649.60
2022-11-04T02:40:02.550Z,85639.20
2022-11-04T02:43:54.132Z,85631.80
2022-11-04T02:47:22.186Z,85619.80
2022-11-04T02:50:07.238Z,85621.60
2022-11-04T02:52:51.564Z,85615.20
2022-11-04T02:55:58.383Z,85620.40
2022-11-04T02:58:41.550Z,85622.20
2022-11-04T03:01:16.368Z,85621.40
2022-11-04T03:03:58.247Z,85618.60
2022-11-04T03:06:29.342Z,85619.60
2022-11-04T03:09:01.280Z,85618.40
2022-11-04T03:11:32.400Z,85624.60
2022-11-04T03:14:09.593Z,85614.40
2022-11-04T03:16:52.615Z,85617.20
2022-11-04T03:19:42.677Z,85607.00
2022-11-04T03:22:22.140Z,85613.20
2022-11-04T03:24:52.517Z,85608.00
2022-11-04T03:27:36.545Z,85604.00
2022-11-04T03:30:13.329Z,85613.60
2022-11-04T03:33:21.162Z,85607.80
2022-11-04T03:35:50.557Z,85597.20
2022-11-04T03:38:22.549Z,85588.60
2022-11-04T03:40:53.096Z,85588.00
2022-11-04T03:43:30.561Z,85586.60
2022-11-04T03:46:00.099Z,85584.00
2022-11-04T03:48:29.756Z,85579.40
2022-11-04T03:50:59.870Z,85572.80
2022-11-04T03:53:31.669Z,85572.20
2022-11-04T03:56:34.699Z,85568.20
2022-11-04T03:59:57.675Z,85563.80
2022-11-04T04:03:00.818Z,85551.20
2022-11-04T04:05:55.629Z,85547.60
2022-11-04T04:08:34.342Z,85558.20
2022-11-04T04:12:02.488Z,85555.40
2022-11-04T04:14:41.439Z,85552.20
2022-11-04T04:17:13.656Z,85540.40
2022-11-04T04:19:52.739Z,85527.20
2022-11-04T04:22:29.408Z,85522.80
2022-11-04T04:25:21.651Z,85515.80
2022-11-04T04:27:53.082Z,85515.00
2022-11-04T04:30:22.381Z,85514.80
2022-11-04T04:33:11.199Z,85511.60
2022-11-04T04:35:57.889Z,85502.00
2022-11-04T04:38:52.240Z,85504.80
2022-11-04T04:41:41.856Z,85497.20
2022-11-04T04:44:49.194Z,85492.00
2022-11-04T04:47:26.092Z,85489.60
2022-11-04T04:50:01.460Z,85488.60
2022-11-04T04:52:39.136Z,85477.20
2022-11-04T04:55:10.337Z,85476.40
2022-11-04T04:57:40.278Z,85475.60
2022-11-04T05:00:14.435Z,85470.40
2022-11-04T05:02:44.197Z,85466.80
2022-11-04T05:07:45.237Z,85470.00
2022-11-04T05:10:17.738Z,85474.40
2022-11-04T05:13:05.982Z,85470.60
2022-11-04T05:15:38.763Z,85461.60
2022-11-04T05:18:08.268Z,85455.80
2022-11-04T05:20:41.306Z,85466.00
2022-11-04T05:23:13.201Z,85459.20
2022-11-04T05:25:43.542Z,85446.60
2022-11-04T05:28:12.611Z,85443.00
2022-11-04T05:30:42.098Z,85441.60
2022-11-04T05:33:11.515Z,85426.20
2022-11-04T05:35:41.066Z,85419.40
2022-11-04T05:38:10.404Z,85427.00
2022-11-04T05:40:39.474Z,85432.60
2022-11-04T05:43:09.247Z,85432.00
2022-11-04T05:45:38.563Z,85420.40
2022-11-04T05:48:08.139Z,85413.00
2022-11-04T05:50:37.087Z,85405.60
2022-11-04T05:53:06.506Z,85397.40
2022-11-04T05:55:35.749Z,85390.20
2022-11-04T05:58:04.879Z,85379.20
2022-11-04T06:00:33.968Z,85365.60
2022-11-04T06:03:04.376Z,85362.00
2022-11-04T06:05:33.724Z,85359.20
2022-11-04T06:08:02.710Z,85355.60
2022-11-04T06:10:31.667Z,85348.40
2022-11-04T06:13:03.315Z,85349.40
2022-11-04T06:15:32.246Z,85347.20
2022-11-04T06:18:01.499Z,85345.80
2022-11-04T06:20:30.621Z,85340.60
2022-11-04T06:22:59.752Z,85343.60
2022-11-04T06:25:31.750Z,85338.60
2022-11-04T06:28:00.883Z,85331.80
2022-11-04T06:30:29.975Z,85327.20
2022-11-04T06:32:59.219Z,85319.60
2022-11-04T06:35:28.365Z,85314.00
2022-11-04T06:37:57.822Z,85312.80
2022-11-04T06:40:29.524Z,85317.80
2022-11-04T06:42:58.659Z,85315.60
2022-11-04T06:45:27.733Z,85302.40
2022-11-04T06:47:56.848Z,85306.20
2022-11-04T06:50:25.982Z,85308.40
2022-11-04T06:52:55.494Z,85299.40
2022-11-04T06:55:24.990Z,85288.20
2022-11-04T06:57:53.940Z,85281.60
2022-11-04T07:00:23.037Z,85283.60
2022-11-04T07:02:52.215Z,85288.00
2022-11-04T07:05:21.207Z,85285.40
2022-11-04T07:07:50.148Z,85273.40
2022-11-04T07:10:19.651Z,85266.60
2022-11-04T07:12:48.857Z,85270.40
2022-11-04T07:15:20.934Z,85271.80
2022-11-04T07:17:52.562Z,85261.20
2022-11-04T07:20:21.479Z,85254.80
2022-11-04T07:22:50.332Z,85254.40
2022-11-04T07:25:19.562Z,85254.60
2022-11-04T07:27:49.082Z,85250.60
2022-11-04T07:30:18.283Z,85243.40
2022-11-04T07:32:47.948Z,85245.00
2022-11-04T07:35:17.302Z,85245.40
2022-11-04T07:37:46.461Z,85247.60
2022-11-04T07:40:15.910Z,85246.20
2022-11-04T07:42:44.957Z,85247.60
2022-11-04T07:45:14.651Z,85246.40
2022-11-04T07:47:43.626Z,85247.40
2022-11-04T07:50:12.764Z,85246.80
2022-11-04T07:52:41.980Z,85258.60
2022-11-04T07:55:11.686Z,85259.20
2022-11-04T07:57:40.767Z,85257.20
2022-11-04T08:00:11.583Z,85256.00
2022-11-04T08:02:40.939Z,85251.80
2022-11-04T08:05:10.859Z,85253.80
2022-11-04T08:07:40.084Z,85258.20
2022-11-04T08:10:11.194Z,85253.60
2022-11-04T08:12:40.450Z,85250.00
2022-11-04T08:15:10.842Z,85260.20
2022-11-04T08:17:41.213Z,85258.40
2022-11-04T08:20:10.979Z,85246.40
2022-11-04T08:22:40.185Z,85249.20
2022-11-04T08:25:09.728Z,85248.40
2022-11-04T08:27:38.837Z,85253.40
2022-11-04T08:30:09.175Z,85259.60
2022-11-04T08:32:38.154Z,85263.00
2022-11-04T08:35:07.718Z,85267.40
2022-11-04T08:37:39.756Z,85264.20
2022-11-04T08:40:09.938Z,85263.80
2022-11-04T08:42:39.074Z,85256.60
2022-11-04T08:45:09.333Z,85249.00
2022-11-04T08:47:40.321Z,85262.60
2022-11-04T08:50:09.960Z,85263.80
2022-11-04T08:52:39.174Z,85267.40
2022-11-04T08:55:08.896Z,85260.60
2022-11-04T08:57:38.188Z,85265.80
2022-11-04T09:00:08.061Z,85269.00
2022-11-04T09:02:37.045Z,85269.00
2022-11-04T09:05:06.502Z,85260.80
2022-11-04T09:07:36.411Z,85255.60
2022-11-04T09:10:07.430Z,85252.60
2022-11-04T09:12:36.475Z,85250.00
2022-11-04T09:15:07.000Z,85251.80
2022-11-04T09:17:36.103Z,85231.20
2022-11-04T09:20:06.963Z,85237.20
2022-11-04T09:22:37.945Z,85234.60
2022-11-04T09:25:10.393Z,85233.80
2022-11-04T09:27:39.772Z,85229.80
2022-11-04T09:30:09.701Z,85229.20
2022-11-04T09:32:38.879Z,85228.20
2022-11-04T09:35:08.454Z,85231.80
2022-11-04T09:37:37.579Z,85225.40
2022-11-04T09:40:07.505Z,85227.00
2022-11-04T09:43:03.141Z,85227.20
2022-11-04T09:45:34.825Z,85234.80
2022-11-04T09:48:13.689Z,85233.00
2022-11-04T09:50:57.234Z,85238.20
2022-11-04T09:53:53.255Z,85237.20
2022-11-04T09:56:24.853Z,85240.40
2022-11-04T09:58:54.589Z,85239.40
2022-11-04T10:01:36.860Z,85239.80
2022-11-04T10:04:31.655Z,85235.00
2022-11-04T10:07:38.209Z,85238.00
2022-11-04T10:10:50.361Z,85229.20
2022-11-04T10:14:02.666Z,85232.20
2022-11-04T10:17:24.904Z,85228.20
2022-11-04T10:20:46.483Z,85232.20
2022-11-04T10:23:47.567Z,85229.40
2022-11-04T10:26:47.862Z,85227.20
2022-11-04T10:29:44.663Z,85227.00
2022-11-04T10:33:20.073Z,85222.20
2022-11-04T10:36:07.702Z,85219.20
2022-11-04T10:38:58.517Z,85224.20
2022-11-04T10:41:40.319Z,85221.60
2022-11-04T10:44:36.991Z,85225.80
2022-11-04T10:47:49.821Z,85219.60
2022-11-04T10:50:47.192Z,85216.80
2022-11-04T10:53:22.408Z,85222.00
2022-11-04T10:56:01.578Z,85219.00
2022-11-04T10:58:36.517Z,85217.20
2022-11-04T11:01:34.888Z,85221.40
2022-11-04T11:04:10.942Z,85219.00
2022-11-04T11:06:40.454Z,85222.00
2022-11-04T11:09:22.441Z,85222.60
2022-11-04T11:11:54.272Z,85215.20
2022-11-04T11:14:34.207Z,85218.60
2022-11-04T11:17:46.087Z,85206.60
2022-11-04T11:20:26.176Z,85212.60
2022-11-04T11:23:00.476Z,85209.20
2022-11-04T11:25:35.723Z,85215.80
2022-11-04T11:28:22.018Z,85210.60
2022-11-04T11:30:51.073Z,85216.40
2022-11-04T11:33:34.909Z,85210.20
2022-11-04T11:36:28.707Z,85201.40
2022-11-04T11:39:18.306Z,85188.60
2022-11-04T11:42:07.383Z,85186.60
2022-11-04T11:44:49.107Z,85189.20
2022-11-04T11:47:30.044Z,85189.40
2022-11-04T11:50:25.736Z,85189.00
2022-11-04T11:52:55.741Z,85193.80
2022-11-04T11:55:31.668Z,85197.00
2022-11-04T12:01:33.728Z,85192.80
2022-11-04T12:10:49.732Z,85198.40
2022-11-04T12:13:51.715Z,85202.20
2022-11-04T12:16:58.608Z,85199.00
2022-11-04T12:19:48.359Z,85198.60
2022-11-04T12:22:44.523Z,85195.80
2022-11-04T12:26:02.906Z,85199.60
2022-11-04T12:29:09.230Z,85197.60
2022-11-04T12:32:05.091Z,85188.80
2022-11-04T12:34:49.191Z,85191.40
2022-11-04T12:37:59.943Z,85188.20
2022-11-04T12:41:41.831Z,85185.20
2022-11-04T12:44:21.272Z,85181.80
2022-11-04T12:47:25.308Z,85175.40
2022-11-04T12:50:19.490Z,85170.00
2022-11-04T12:53:09.842Z,85167.80
2022-11-04T12:56:23.983Z,85163.20
2022-11-04T12:59:40.612Z,85164.20
2022-11-04T13:02:31.629Z,85160.20
2022-11-04T13:05:23.735Z,85153.60
2022-11-04T13:08:16.676Z,85149.80
2022-11-04T13:11:07.463Z,85147.40
2022-11-04T13:13:41.025Z,85151.80
2022-11-04T13:16:13.986Z,85154.40
2022-11-04T13:18:46.730Z,85159.40
2022-11-04T13:21:24.906Z,85166.00
2022-11-04T13:24:00.970Z,85158.00
2022-11-04T13:26:29.910Z,85157.00
2022-11-04T13:29:14.064Z,85159.40
2022-11-04T13:32:15.546Z,85146.40
2022-11-04T13:35:27.581Z,85150.60
2022-11-04T13:38:21.561Z,85143.20
2022-11-04T13:41:26.394Z,85133.80
2022-11-04T13:44:04.699Z,85125.80
2022-11-04T13:46:36.462Z,85129.20
2022-11-04T13:49:14.246Z,85127.20
2022-11-04T13:52:02.134Z,85117.60
2022-11-04T13:54:37.472Z,85114.60
2022-11-04T13:57:31.899Z,85104.20
2022-11-04T14:00:18.656Z,85097.20
2022-11-04T14:03:31.101Z,85096.60
2022-11-04T14:06:07.723Z,85105.00
2022-11-04T14:08:37.130Z,85108.00
2022-11-04T14:11:12.456Z,85105.60
2022-11-04T14:13:46.764Z,85102.40
2022-11-04T14:16:28.266Z,85107.20
2022-11-04T14:18:57.412Z,85104.00
2022-11-04T14:21:30.459Z,85098.40
2022-11-04T14:24:16.551Z,85102.60
2022-11-04T14:26:51.358Z,85105.40
2022-11-04T14:29:26.302Z,85096.20
2022-11-04T14:32:01.654Z,85098.20
2022-11-04T14:34:38.813Z,85094.60
2022-11-04T14:37:37.386Z,85088.20
2022-11-04T14:40:29.968Z,85087.40
2022-11-04T14:43:00.468Z,85083.00
2022-11-04T14:45:41.006Z,85079.40
2022-11-04T14:48:20.441Z,85074.20
2022-11-04T14:50:54.952Z,85073.00
2022-11-04T14:53:38.418Z,85072.00
2022-11-04T14:56:23.779Z,85073.00
2022-11-04T14:59:02.576Z,85065.80
2022-11-04T15:01:40.292Z,85064.40
2022-11-04T15:04:27.935Z,85059.40
2022-11-04T15:06:59.953Z,85061.40
2022-11-04T15:09:42.287Z,85059.60
2022-11-04T15:12:29.903Z,85059.60
2022-11-04T15:15:00.850Z,85062.00
2022-11-04T15:17:35.462Z,85054.80
2022-11-04T15:20:06.386Z,85059.60
2022-11-04T15:22:36.438Z,85051.20
2022-11-04T15:25:11.995Z,85053.40
2022-11-04T15:27:43.665Z,85055.60
2022-11-04T15:30:31.022Z,85052.60
2022-11-04T15:33:15.387Z,85049.60
2022-11-04T15:35:44.930Z,85050.20
2022-11-04T15:38:16.705Z,85045.80
2022-11-04T15:40:48.272Z,85048.00
2022-11-04T15:43:17.982Z,85055.60
2022-11-04T15:45:54.646Z,85048.40
2022-11-04T15:48:38.874Z,85050.20
2022-11-04T15:51:22.691Z,85045.00
2022-11-04T15:54:01.117Z,85033.40
2022-11-04T15:56:36.712Z,85030.60
2022-11-04T15:59:23.909Z,85031.40
2022-11-04T16:01:55.698Z,85026.00
2022-11-04T16:04:29.578Z,85026.40
2022-11-04T16:07:31.840Z,85024.00
2022-11-04T16:10:05.365Z,85034.20
2022-11-04T16:12:45.916Z,85029.40
2022-11-04T16:15:39.525Z,85025.80
2022-11-04T16:18:32.367Z,85027.80
2022-11-04T16:21:07.120Z,85028.00
2022-11-04T16:23:47.721Z,85034.80
2022-11-04T16:26:17.455Z,85032.00
2022-11-04T16:28:46.696Z,85019.40
2022-11-04T16:31:39.214Z,85017.40
2022-11-04T16:34:14.191Z,85019.40
2022-11-04T16:36:43.158Z,85023.80
2022-11-04T16:39:12.324Z,85023.80
2022-11-04T16:41:42.981Z,85016.80
2022-11-04T16:44:23.817Z,85015.20
2022-11-04T16:46:53.254Z,85013.40
2022-11-04T16:49:23.608Z,85001.60
2022-11-04T16:52:02.623Z,85010.20
2022-11-04T16:54:32.009Z,85004.00
2022-11-04T16:57:02.029Z,85006.60
2022-11-04T16:59:31.086Z,84998.20
2022-11-04T17:02:00.287Z,84997.80
2022-11-04T17:04:29.502Z,84999.40
2022-11-04T17:06:58.475Z,84994.40
2022-11-04T17:09:27.684Z,84980.00
2022-11-04T17:11:57.308Z,84977.40
2022-11-04T17:14:26.560Z,84971.20
2022-11-04T17:16:58.031Z,84972.60
2022-11-04T17:19:31.848Z,84971.60
2022-11-04T17:22:07.851Z,84966.00
2022-11-04T17:24:38.572Z,84963.00
2022-11-04T17:27:07.654Z,84950.80
2022-11-04T17:29:38.523Z,84944.40
2022-11-04T17:32:07.829Z,84943.40
2022-11-04T17:34:36.786Z,84943.20
2022-11-04T17:37:05.951Z,84939.00
2022-11-04T17:39:35.162Z,84931.20
2022-11-04T17:42:22.662Z,84930.60
2022-11-04T17:44:51.735Z,84929.60
2022-11-04T17:47:20.630Z,84929.00
2022-11-04T17:49:49.796Z,84930.40
2022-11-04T17:52:21.972Z,84932.60
2022-11-04T17:54:51.369Z,84929.40
2022-11-04T17:57:20.561Z,84927.80
2022-11-04T17:59:49.440Z,84925.00
2022-11-04T18:02:19.248Z,84924.40
2022-11-04T18:04:48.227Z,84918.80
2022-11-04T18:07:17.269Z,84924.00
2022-11-04T18:09:46.378Z,84915.40
2022-11-04T18:12:33.843Z,84911.80
2022-11-04T18:15:02.955Z,84916.00
2022-11-04T18:17:31.889Z,84912.80
2022-11-04T18:20:00.904Z,84907.20
2022-11-04T18:22:30.035Z,84902.80
2022-11-04T18:24:59.103Z,84902.40
2022-11-04T18:27:28.058Z,84908.80
2022-11-04T18:29:57.226Z,84907.60
2022-11-04T18:32:26.275Z,84891.60
2022-11-04T18:34:55.408Z,84882.80
2022-11-04T18:37:24.986Z,84881.40
2022-11-04T18:39:54.004Z,84876.60
2022-11-04T18:42:23.295Z,84875.20
2022-11-04T18:44:52.698Z,84876.80
2022-11-04T18:47:23.915Z,84872.20
2022-11-04T18:49:53.330Z,84869.80
2022-11-04T18:52:22.528Z,84859.80
2022-11-04T18:54:51.796Z,84865.80
2022-11-04T18:57:20.999Z,84865.20
2022-11-04T18:59:50.109Z,84860.00
2022-11-04T19:02:27.135Z,84849.20
2022-11-04T19:04:56.677Z,84849.40
2022-11-04T19:07:25.952Z,84845.40
2022-11-04T19:09:56.209Z,84844.60
2022-11-04T19:12:43.303Z,84830.80
2022-11-04T19:15:12.654Z,84825.40
2022-11-04T19:17:41.645Z,84808.20
2022-11-04T19:20:12.872Z,84799.20
2022-11-04T19:22:42.928Z,84797.60
2022-11-04T19:25:13.932Z,84802.20
2022-11-04T19:27:43.151Z,84801.40
2022-11-04T19:30:12.990Z,84803.20
2022-11-04T19:32:48.321Z,84794.00
2022-11-04T19:35:17.501Z,84787.40
2022-11-04T19:37:46.625Z,84773.60
2022-11-04T19:40:15.745Z,84762.00
2022-11-04T19:43:02.784Z,84762.40
2022-11-04T19:45:31.992Z,84752.20
2022-11-04T19:48:01.020Z,84741.40
2022-11-04T19:50:30.166Z,84738.00
2022-11-04T19:52:59.221Z,84734.80
2022-11-04T19:55:28.426Z,84725.00
2022-11-04T19:57:57.766Z,84715.20
2022-11-04T20:00:27.055Z,84704.40
2022-11-04T20:02:56.855Z,84708.00
2022-11-04T20:05:26.379Z,84705.00
2022-11-04T20:07:56.951Z,84702.40
2022-11-04T20:10:28.690Z,84701.80
2022-11-04T20:13:15.797Z,84697.80
2022-11-04T20:15:44.948Z,84694.60
2022-11-04T20:18:13.797Z,84682.20
2022-11-04T20:20:42.997Z,84678.60
2022-11-04T20:23:12.096Z,84678.80
2022-11-04T20:25:41.218Z,84670.00
2022-11-04T20:28:10.676Z,84667.20
2022-11-04T20:30:40.854Z,84662.80
2022-11-04T20:33:09.846Z,84656.20
2022-11-04T20:35:38.809Z,84653.20
2022-11-04T20:38:08.542Z,84649.00
2022-11-04T20:40:37.767Z,84640.60
2022-11-04T20:43:07.146Z,84638.00
2022-11-04T20:45:36.246Z,84630.00
2022-11-04T20:48:05.403Z,84634.40
2022-11-04T20:50:34.840Z,84628.40
2022-11-04T20:53:03.939Z,84620.60
2022-11-04T20:55:33.056Z,84617.60
2022-11-04T20:58:02.254Z,84606.20
2022-11-04T21:00:32.337Z,84596.20
2022-11-04T21:03:01.348Z,84587.20
2022-11-04T21:05:30.326Z,84584.40
2022-11-04T21:07:59.435Z,84578.80
2022-11-04T21:10:28.759Z,84580.00
2022-11-04T21:12:57.814Z,84567.40
2022-11-04T21:15:42.230Z,84562.40
2022-11-04T21:18:14.244Z,84558.40
2022-11-04T21:20:45.333Z,84552.80
2022-11-04T21:23:16.421Z,84547.00
2022-11-04T21:25:51.426Z,84542.20
2022-11-04T21:28:20.515Z,84537.40
2022-11-04T21:30:54.241Z,84534.60
2022-11-04T21:33:23.674Z,84523.40
2022-11-04T21:35:52.871Z,84526.40
2022-11-04T21:38:22.215Z,84506.60
2022-11-04T21:40:52.694Z,84502.40
2022-11-04T21:43:21.851Z,84492.40
2022-11-04T21:45:50.924Z,84488.40
2022-11-04T21:48:20.054Z,84483.20
2022-11-04T21:50:49.128Z,84485.40
2022-11-04T21:53:18.352Z,84472.00
2022-11-04T21:55:47.632Z,84474.60
2022-11-04T21:58:16.679Z,84464.40
2022-11-04T22:00:45.789Z,84463.00
2022-11-04T22:03:15.174Z,84454.00
2022-11-04T22:05:44.240Z,84441.40
2022-11-04T22:08:22.576Z,84442.40
2022-11-04T22:10:51.991Z,84441.60
2022-11-04T22:13:21.959Z,84435.20
2022-11-04T22:16:00.783Z,84425.80
2022-11-04T22:18:35.644Z,84427.60
2022-11-04T22:21:08.658Z,84429.20
2022-11-04T22:23:39.337Z,84418.40
2022-11-04T22:26:13.671Z,84412.80
2022-11-04T22:28:43.051Z,84408.80
2022-11-04T22:31:23.471Z,84405.80
2022-11-04T22:33:54.705Z,84398.40
2022-11-04T22:36:24.520Z,84390.20
2022-11-04T22:38:53.997Z,84380.60
2022-11-04T22:41:30.389Z,84380.80
2022-11-04T22:44:00.144Z,84377.40
2022-11-04T22:46:33.535Z,84364.60
2022-11-04T22:49:02.819Z,84363.00
2022-11-04T22:51:33.489Z,84369.40
2022-11-04T22:54:07.940Z,84370.60
2022-11-04T22:56:38.157Z,84360.20
2022-11-04T22:59:08.913Z,84357.00
2022-11-04T23:01:38.537Z,84344.80
2022-11-04T23:04:12.771Z,84344.60
2022-11-04T23:06:43.333Z,84337.60
2022-11-04T23:09:14.845Z,84340.00
2022-11-04T23:12:02.388Z,84329.80
2022-11-04T23:14:43.498Z,84324.80
2022-11-04T23:17:33.337Z,84314.80
2022-11-04T23:20:03.057Z,84304.20
2022-11-04T23:22:50.273Z,84297.40
2022-11-04T23:25:22.293Z,84281.00
2022-11-04T23:28:13.062Z,84292.20
2022-11-04T23:30:51.721Z,84272.40
2022-11-04T23:33:40.859Z,84272.00
2022-11-04T23:36:29.112Z,84262.80
2022-11-04T23:38:58.366Z,84256.40
2022-11-04T23:41:45.806Z,84230.80
2022-11-04T23:44:34.777Z,84230.60
2022-11-04T23:47:22.395Z,84226.20
2022-11-04T23:50:09.907Z,84218.20
2022-11-04T23:52:57.219Z,84215.00
2022-11-04T23:55:45.193Z,84208.40
2022-11-04T23:58:32.547Z,84195.40
